sensor_id;sensor_type;location;lat;lon;timestamp;P1;durP1;ratioP1;P2;durP2;ratioP2
70545;SDS011;58098;51.680;5.134;2022-10-15T00:00:19;87.17;;;37.03;;
70545;SDS011;58098;51.680;5.134;2022-10-15T00:02:44;90.37;;;37.87;;
70545;SDS011;58098;51.680;5.134;2022-10-15T00:05:10;89.97;;;37.83;;
70545;SDS011;58098;51.680;5.134;2022-10-15T00:07:35;84.33;;;35.87;;
70545;SDS011;58098;51.680;5.134;2022-10-15T00:10:00;89.33;;;38.33;;
70545;SDS011;58098;51.680;5.134;2022-10-15T00:12:25;91.07;;;38.07;;
70545;SDS011;58098;51.680;5.134;2022-10-15T00:14:50;89.87;;;38.17;;
70545;SDS011;58098;51.680;5.134;2022-10-15T00:17:16;89.27;;;38.73;;
70545;SDS011;58098;51.680;5.134;2022-10-15T00:19:41;89.30;;;38.57;;
70545;SDS011;58098;51.680;5.134;2022-10-15T00:22:06;89.83;;;37.93;;
70545;SDS011;58098;51.680;5.134;2022-10-15T00:24:31;94.53;;;38.33;;
70545;SDS011;58098;51.680;5.134;2022-10-15T00:26:56;92.77;;;38.20;;
70545;SDS011;58098;51.680;5.134;2022-10-15T00:29:21;86.67;;;38.27;;
70545;SDS011;58098;51.680;5.134;2022-10-15T00:31:47;99.27;;;39.37;;
70545;SDS011;58098;51.680;5.134;2022-10-15T00:34:12;99.33;;;40.30;;
70545;SDS011;58098;51.680;5.134;2022-10-15T00:36:37;101.40;;;40.17;;
70545;SDS011;58098;51.680;5.134;2022-10-15T00:39:03;102.23;;;42.53;;
70545;SDS011;58098;51.680;5.134;2022-10-15T00:41:30;97.40;;;39.90;;
70545;SDS011;58098;51.680;5.134;2022-10-15T00:43:57;98.20;;;40.10;;
70545;SDS011;58098;51.680;5.134;2022-10-15T00:46:28;105.93;;;41.78;;
70545;SDS011;58098;51.680;5.134;2022-10-15T00:48:56;103.63;;;40.60;;
70545;SDS011;58098;51.680;5.134;2022-10-15T00:51:22;93.95;;;40.15;;
70545;SDS011;58098;51.680;5.134;2022-10-15T00:53:50;96.50;;;40.30;;
70545;SDS011;58098;51.680;5.134;2022-10-15T00:56:16;101.17;;;40.13;;
70545;SDS011;58098;51.680;5.134;2022-10-15T00:58:41;92.63;;;40.22;;
70545;SDS011;58098;51.680;5.134;2022-10-15T01:01:07;96.43;;;41.13;;
70545;SDS011;58098;51.680;5.134;2022-10-15T01:03:32;94.23;;;39.27;;
70545;SDS011;58098;51.680;5.134;2022-10-15T01:06:00;90.82;;;39.58;;
70545;SDS011;58098;51.680;5.134;2022-10-15T01:08:25;91.40;;;39.03;;
70545;SDS011;58098;51.680;5.134;2022-10-15T01:18:35;91.78;;;39.88;;
70545;SDS011;58098;51.680;5.134;2022-10-15T01:26:23;89.10;;;39.73;;
70545;SDS011;58098;51.680;5.134;2022-10-15T01:34:03;90.10;;;40.53;;
70545;SDS011;58098;51.680;5.134;2022-10-15T01:36:54;90.53;;;40.15;;
70545;SDS011;58098;51.680;5.134;2022-10-15T01:39:30;94.47;;;40.97;;
70545;SDS011;58098;51.680;5.134;2022-10-15T01:42:00;91.82;;;40.08;;
70545;SDS011;58098;51.680;5.134;2022-10-15T01:44:30;95.97;;;41.83;;
70545;SDS011;58098;51.680;5.134;2022-10-15T01:47:05;87.32;;;39.97;;
70545;SDS011;58098;51.680;5.134;2022-10-15T01:49:35;89.13;;;40.35;;
70545;SDS011;58098;51.680;5.134;2022-10-15T01:52:05;97.37;;;42.93;;
70545;SDS011;58098;51.680;5.134;2022-10-15T01:54:31;90.10;;;40.47;;
70545;SDS011;58098;51.680;5.134;2022-10-15T01:56:57;94.47;;;41.85;;
70545;SDS011;58098;51.680;5.134;2022-10-15T01:59:23;87.20;;;40.20;;
70545;SDS011;58098;51.680;5.134;2022-10-15T02:01:50;86.15;;;40.67;;
70545;SDS011;58098;51.680;5.134;2022-10-15T02:04:22;82.67;;;39.50;;
70545;SDS011;58098;51.680;5.134;2022-10-15T02:14:36;84.60;;;39.55;;
70545;SDS011;58098;51.680;5.134;2022-10-15T02:17:10;87.60;;;41.60;;
70545;SDS011;58098;51.680;5.134;2022-10-15T02:24:55;86.70;;;40.55;;
70545;SDS011;58098;51.680;5.134;2022-10-15T02:27:21;82.35;;;38.88;;
70545;SDS011;58098;51.680;5.134;2022-10-15T02:29:48;80.77;;;39.37;;
70545;SDS011;58098;51.680;5.134;2022-10-15T02:32:14;83.17;;;38.93;;
70545;SDS011;58098;51.680;5.134;2022-10-15T02:34:40;84.85;;;40.78;;
70545;SDS011;58098;51.680;5.134;2022-10-15T02:37:05;82.17;;;39.00;;
70545;SDS011;58098;51.680;5.134;2022-10-15T02:39:31;83.17;;;38.23;;
70545;SDS011;58098;51.680;5.134;2022-10-15T02:41:57;82.13;;;38.80;;
70545;SDS011;58098;51.680;5.134;2022-10-15T02:44:22;82.33;;;39.70;;
70545;SDS011;58098;51.680;5.134;2022-10-15T02:46:48;76.63;;;37.37;;
70545;SDS011;58098;51.680;5.134;2022-10-15T02:49:13;79.17;;;36.80;;
70545;SDS011;58098;51.680;5.134;2022-10-15T02:51:38;84.23;;;39.73;;
70545;SDS011;58098;51.680;5.134;2022-10-15T02:54:03;84.70;;;37.27;;
70545;SDS011;58098;51.680;5.134;2022-10-15T02:56:29;79.30;;;37.63;;
70545;SDS011;58098;51.680;5.134;2022-10-15T02:58:54;82.97;;;38.90;;
70545;SDS011;58098;51.680;5.134;2022-10-15T03:01:19;76.00;;;38.20;;
70545;SDS011;58098;51.680;5.134;2022-10-15T03:03:45;80.47;;;39.23;;
70545;SDS011;58098;51.680;5.134;2022-10-15T03:06:10;74.20;;;38.67;;
70545;SDS011;58098;51.680;5.134;2022-10-15T03:08:35;77.70;;;38.10;;
70545;SDS011;58098;51.680;5.134;2022-10-15T03:11:01;80.07;;;38.97;;
70545;SDS011;58098;51.680;5.134;2022-10-15T03:13:26;83.38;;;38.38;;
70545;SDS011;58098;51.680;5.134;2022-10-15T03:15:52;84.17;;;37.53;;
70545;SDS011;58098;51.680;5.134;2022-10-15T03:18:17;80.77;;;38.30;;
70545;SDS011;58098;51.680;5.134;2022-10-15T03:20:42;85.23;;;38.50;;
70545;SDS011;58098;51.680;5.134;2022-10-15T03:23:08;83.27;;;38.43;;
70545;SDS011;58098;51.680;5.134;2022-10-15T03:25:33;81.10;;;39.87;;
70545;SDS011;58098;51.680;5.134;2022-10-15T03:27:58;77.77;;;37.47;;
70545;SDS011;58098;51.680;5.134;2022-10-15T03:30:23;86.57;;;39.73;;
70545;SDS011;58098;51.680;5.134;2022-10-15T03:32:48;81.30;;;37.67;;
70545;SDS011;58098;51.680;5.134;2022-10-15T03:35:14;78.75;;;38.20;;
70545;SDS011;58098;51.680;5.134;2022-10-15T03:37:39;81.43;;;38.43;;
70545;SDS011;58098;51.680;5.134;2022-10-15T03:40:04;76.00;;;38.00;;
70545;SDS011;58098;51.680;5.134;2022-10-15T03:42:29;83.97;;;38.07;;
70545;SDS011;58098;51.680;5.134;2022-10-15T03:44:55;79.37;;;38.63;;
70545;SDS011;58098;51.680;5.134;2022-10-15T03:47:20;81.23;;;39.53;;
70545;SDS011;58098;51.680;5.134;2022-10-15T03:49:45;78.43;;;38.83;;
70545;SDS011;58098;51.680;5.134;2022-10-15T03:52:10;86.83;;;37.97;;
70545;SDS011;58098;51.680;5.134;2022-10-15T03:54:36;83.70;;;39.17;;
70545;SDS011;58098;51.680;5.134;2022-10-15T03:57:01;83.93;;;40.37;;
70545;SDS011;58098;51.680;5.134;2022-10-15T03:59:26;88.10;;;40.90;;
70545;SDS011;58098;51.680;5.134;2022-10-15T04:01:51;90.47;;;40.13;;
70545;SDS011;58098;51.680;5.134;2022-10-15T04:04:16;90.10;;;40.80;;
70545;SDS011;58098;51.680;5.134;2022-10-15T04:06:41;92.60;;;41.47;;
70545;SDS011;58098;51.680;5.134;2022-10-15T04:09:09;96.33;;;42.17;;
70545;SDS011;58098;51.680;5.134;2022-10-15T04:11:34;90.45;;;40.75;;
70545;SDS011;58098;51.680;5.134;2022-10-15T04:13:59;100.53;;;43.13;;
70545;SDS011;58098;51.680;5.134;2022-10-15T04:16:25;102.33;;;42.33;;
70545;SDS011;58098;51.680;5.134;2022-10-15T04:18:50;108.40;;;43.47;;
70545;SDS011;58098;51.680;5.134;2022-10-15T04:21:15;106.90;;;43.03;;
70545;SDS011;58098;51.680;5.134;2022-10-15T04:23:41;131.33;;;46.40;;
70545;SDS011;58098;51.680;5.134;2022-10-15T04:26:06;124.00;;;43.07;;
70545;SDS011;58098;51.680;5.134;2022-10-15T04:28:31;146.43;;;47.97;;
70545;SDS011;58098;51.680;5.134;2022-10-15T04:30:57;151.15;;;47.83;;
70545;SDS011;58098;51.680;5.134;2022-10-15T04:33:23;140.00;;;44.70;;
70545;SDS011;58098;51.680;5.134;2022-10-15T04:36:11;171.10;;;45.75;;
70545;SDS011;58098;51.680;5.134;2022-10-15T04:38:34;157.43;;;42.40;;
70545;SDS011;58098;51.680;5.134;2022-10-15T04:40:59;173.97;;;47.10;;
70545;SDS011;58098;51.680;5.134;2022-10-15T04:43:25;177.40;;;45.10;;
70545;SDS011;58098;51.680;5.134;2022-10-15T04:45:53;161.73;;;42.53;;
70545;SDS011;58098;51.680;5.134;2022-10-15T04:48:19;151.57;;;41.97;;
70545;SDS011;58098;51.680;5.134;2022-10-15T04:50:44;158.90;;;42.50;;
70545;SDS011;58098;51.680;5.134;2022-10-15T04:53:09;143.55;;;40.80;;
70545;SDS011;58098;51.680;5.134;2022-10-15T04:55:34;154.45;;;40.75;;
70545;SDS011;58098;51.680;5.134;2022-10-15T04:57:59;148.70;;;39.95;;
70545;SDS011;58098;51.680;5.134;2022-10-15T05:00:24;153.70;;;40.10;;
70545;SDS011;58098;51.680;5.134;2022-10-15T05:02:50;142.45;;;40.35;;
70545;SDS011;58098;51.680;5.134;2022-10-15T05:05:15;153.90;;;40.30;;
70545;SDS011;58098;51.680;5.134;2022-10-15T05:07:40;127.33;;;37.50;;
70545;SDS011;58098;51.680;5.134;2022-10-15T05:10:05;137.55;;;38.75;;
70545;SDS011;58098;51.680;5.134;2022-10-15T05:12:31;132.63;;;39.40;;
70545;SDS011;58098;51.680;5.134;2022-10-15T05:14:56;124.10;;;37.00;;
70545;SDS011;58098;51.680;5.134;2022-10-15T05:17:21;138.20;;;39.57;;
70545;SDS011;58098;51.680;5.134;2022-10-15T05:19:46;130.37;;;37.50;;
70545;SDS011;58098;51.680;5.134;2022-10-15T05:22:11;129.17;;;35.57;;
70545;SDS011;58098;51.680;5.134;2022-10-15T05:24:37;112.07;;;34.60;;
70545;SDS011;58098;51.680;5.134;2022-10-15T05:27:02;113.47;;;34.30;;
70545;SDS011;58098;51.680;5.134;2022-10-15T05:29:27;113.27;;;34.00;;
70545;SDS011;58098;51.680;5.134;2022-10-15T05:31:52;110.90;;;33.73;;
70545;SDS011;58098;51.680;5.134;2022-10-15T05:34:17;108.10;;;32.87;;
70545;SDS011;58098;51.680;5.134;2022-10-15T05:36:42;103.23;;;31.77;;
70545;SDS011;58098;51.680;5.134;2022-10-15T05:39:08;99.27;;;30.57;;
70545;SDS011;58098;51.680;5.134;2022-10-15T05:41:35;97.63;;;31.25;;
70545;SDS011;58098;51.680;5.134;2022-10-15T05:44:00;87.60;;;29.10;;
70545;SDS011;58098;51.680;5.134;2022-10-15T05:46:25;94.30;;;30.70;;
70545;SDS011;58098;51.680;5.134;2022-10-15T05:48:51;91.23;;;30.37;;
70545;SDS011;58098;51.680;5.134;2022-10-15T05:51:16;98.68;;;30.48;;
70545;SDS011;58098;51.680;5.134;2022-10-15T05:53:42;94.63;;;30.70;;
70545;SDS011;58098;51.680;5.134;2022-10-15T05:56:07;91.90;;;28.50;;
70545;SDS011;58098;51.680;5.134;2022-10-15T05:58:33;86.28;;;29.05;;
70545;SDS011;58098;51.680;5.134;2022-10-15T06:00:59;90.73;;;30.17;;
70545;SDS011;58098;51.680;5.134;2022-10-15T06:03:25;92.47;;;30.63;;
70545;SDS011;58098;51.680;5.134;2022-10-15T06:05:50;91.37;;;29.10;;
70545;SDS011;58098;51.680;5.134;2022-10-15T06:08:16;93.20;;;30.80;;
70545;SDS011;58098;51.680;5.134;2022-10-15T06:10:41;97.93;;;30.60;;
70545;SDS011;58098;51.680;5.134;2022-10-15T06:13:07;90.57;;;29.30;;
70545;SDS011;58098;51.680;5.134;2022-10-15T06:15:32;87.43;;;28.93;;
70545;SDS011;58098;51.680;5.134;2022-10-15T06:17:58;89.82;;;28.83;;
70545;SDS011;58098;51.680;5.134;2022-10-15T06:20:23;96.27;;;31.03;;
70545;SDS011;58098;51.680;5.134;2022-10-15T06:22:48;89.93;;;29.47;;
70545;SDS011;58098;51.680;5.134;2022-10-15T06:25:13;89.87;;;28.37;;
70545;SDS011;58098;51.680;5.134;2022-10-15T06:27:38;84.43;;;27.90;;
70545;SDS011;58098;51.680;5.134;2022-10-15T06:30:04;87.60;;;28.20;;
70545;SDS011;58098;51.680;5.134;2022-10-15T06:32:30;79.80;;;28.35;;
70545;SDS011;58098;51.680;5.134;2022-10-15T06:34:55;81.53;;;27.93;;
70545;SDS011;58098;51.680;5.134;2022-10-15T06:37:20;81.67;;;26.63;;
70545;SDS011;58098;51.680;5.134;2022-10-15T06:39:45;77.43;;;26.93;;
70545;SDS011;58098;51.680;5.134;2022-10-15T06:42:11;77.90;;;27.23;;
70545;SDS011;58098;51.680;5.134;2022-10-15T06:44:36;75.13;;;25.67;;
70545;SDS011;58098;51.680;5.134;2022-10-15T06:47:01;75.67;;;25.47;;
70545;SDS011;58098;51.680;5.134;2022-10-15T06:49:27;74.37;;;26.67;;
70545;SDS011;58098;51.680;5.134;2022-10-15T06:51:52;70.77;;;25.47;;
70545;SDS011;58098;51.680;5.134;2022-10-15T06:54:17;67.93;;;24.50;;
70545;SDS011;58098;51.680;5.134;2022-10-15T06:56:42;76.47;;;25.10;;
70545;SDS011;58098;51.680;5.134;2022-10-15T06:59:07;66.70;;;24.33;;
70545;SDS011;58098;51.680;5.134;2022-10-15T07:01:33;69.03;;;23.67;;
70545;SDS011;58098;51.680;5.134;2022-10-15T07:03:58;69.80;;;23.80;;
70545;SDS011;58098;51.680;5.134;2022-10-15T07:06:23;74.43;;;24.93;;
70545;SDS011;58098;51.680;5.134;2022-10-15T07:08:49;69.65;;;25.00;;
70545;SDS011;58098;51.680;5.134;2022-10-15T07:11:14;65.77;;;22.13;;
70545;SDS011;58098;51.680;5.134;2022-10-15T07:13:40;62.37;;;22.53;;
70545;SDS011;58098;51.680;5.134;2022-10-15T07:16:07;66.68;;;23.33;;
70545;SDS011;58098;51.680;5.134;2022-10-15T07:18:33;63.92;;;23.95;;
70545;SDS011;58098;51.680;5.134;2022-10-15T07:20:58;62.93;;;24.07;;
70545;SDS011;58098;51.680;5.134;2022-10-15T07:23:23;63.93;;;22.40;;
70545;SDS011;58098;51.680;5.134;2022-10-15T07:25:48;57.80;;;22.17;;
70545;SDS011;58098;51.680;5.134;2022-10-15T07:28:14;52.03;;;21.93;;
70545;SDS011;58098;51.680;5.134;2022-10-15T07:30:39;52.23;;;22.13;;
70545;SDS011;58098;51.680;5.134;2022-10-15T07:33:04;53.40;;;21.50;;
70545;SDS011;58098;51.680;5.134;2022-10-15T07:35:29;47.87;;;20.80;;
70545;SDS011;58098;51.680;5.134;2022-10-15T07:37:54;52.57;;;21.10;;
70545;SDS011;58098;51.680;5.134;2022-10-15T07:40:20;51.20;;;20.00;;
70545;SDS011;58098;51.680;5.134;2022-10-15T07:42:51;52.10;;;20.80;;
70545;SDS011;58098;51.680;5.134;2022-10-15T07:45:16;49.10;;;20.63;;
70545;SDS011;58098;51.680;5.134;2022-10-15T07:47:41;54.30;;;20.90;;
70545;SDS011;58098;51.680;5.134;2022-10-15T07:50:06;50.13;;;21.13;;
70545;SDS011;58098;51.680;5.134;2022-10-15T07:52:32;49.03;;;21.80;;
70545;SDS011;58098;51.680;5.134;2022-10-15T07:54:57;48.60;;;21.10;;
70545;SDS011;58098;51.680;5.134;2022-10-15T07:57:22;45.60;;;19.85;;
70545;SDS011;58098;51.680;5.134;2022-10-15T07:59:47;44.07;;;19.33;;
70545;SDS011;58098;51.680;5.134;2022-10-15T08:02:16;40.97;;;18.10;;
70545;SDS011;58098;51.680;5.134;2022-10-15T08:04:41;38.97;;;17.60;;
70545;SDS011;58098;51.680;5.134;2022-10-15T08:07:07;38.38;;;18.77;;
70545;SDS011;58098;51.680;5.134;2022-10-15T08:09:32;40.90;;;18.07;;
70545;SDS011;58098;51.680;5.134;2022-10-15T08:11:57;32.97;;;16.20;;
70545;SDS011;58098;51.680;5.134;2022-10-15T08:14:22;32.33;;;16.77;;
70545;SDS011;58098;51.680;5.134;2022-10-15T08:16:48;32.77;;;16.07;;
70545;SDS011;58098;51.680;5.134;2022-10-15T08:19:13;31.53;;;16.57;;
70545;SDS011;58098;51.680;5.134;2022-10-15T08:21:41;28.65;;;16.00;;
70545;SDS011;58098;51.680;5.134;2022-10-15T08:24:07;28.97;;;16.17;;
70545;SDS011;58098;51.680;5.134;2022-10-15T08:26:32;32.53;;;16.83;;
70545;SDS011;58098;51.680;5.134;2022-10-15T08:28:58;31.48;;;16.75;;
70545;SDS011;58098;51.680;5.134;2022-10-15T08:31:23;32.07;;;16.07;;
70545;SDS011;58098;51.680;5.134;2022-10-15T08:33:48;31.53;;;17.17;;
70545;SDS011;58098;51.680;5.134;2022-10-15T08:36:13;31.63;;;17.50;;
70545;SDS011;58098;51.680;5.134;2022-10-15T08:38:39;32.73;;;17.53;;
70545;SDS011;58098;51.680;5.134;2022-10-15T08:41:04;31.60;;;17.13;;
70545;SDS011;58098;51.680;5.134;2022-10-15T08:43:36;33.60;;;16.08;;
70545;SDS011;58098;51.680;5.134;2022-10-15T08:46:08;34.50;;;17.13;;
70545;SDS011;58098;51.680;5.134;2022-10-15T08:48:35;30.00;;;17.00;;
70545;SDS011;58098;51.680;5.134;2022-10-15T08:54:00;31.95;;;16.90;;
70545;SDS011;58098;51.680;5.134;2022-10-15T08:56:26;31.55;;;16.73;;
70545;SDS011;58098;51.680;5.134;2022-10-15T09:01:36;29.73;;;16.23;;
70545;SDS011;58098;51.680;5.134;2022-10-15T09:06:53;25.50;;;14.68;;
70545;SDS011;58098;51.680;5.134;2022-10-15T09:14:32;22.90;;;13.03;;
70545;SDS011;58098;51.680;5.134;2022-10-15T09:16:59;23.98;;;14.05;;
70545;SDS011;58098;51.680;5.134;2022-10-15T09:19:25;22.98;;;13.32;;
70545;SDS011;58098;51.680;5.134;2022-10-15T09:21:52;21.58;;;13.10;;
70545;SDS011;58098;51.680;5.134;2022-10-15T09:24:20;20.70;;;12.13;;
70545;SDS011;58098;51.680;5.134;2022-10-15T09:26:50;20.52;;;11.70;;
70545;SDS011;58098;51.680;5.134;2022-10-15T09:34:26;18.75;;;10.85;;
70545;SDS011;58098;51.680;5.134;2022-10-15T09:36:52;20.08;;;11.50;;
70545;SDS011;58098;51.680;5.134;2022-10-15T09:44:22;18.93;;;10.37;;
70545;SDS011;58098;51.680;5.134;2022-10-15T09:46:49;16.83;;;10.23;;
70545;SDS011;58098;51.680;5.134;2022-10-15T09:49:15;15.10;;;9.88;;
70545;SDS011;58098;51.680;5.134;2022-10-15T09:54:31;16.40;;;9.27;;
70545;SDS011;58098;51.680;5.134;2022-10-15T09:57:00;15.40;;;9.43;;
70545;SDS011;58098;51.680;5.134;2022-10-15T09:59:26;16.13;;;9.07;;
70545;SDS011;58098;51.680;5.134;2022-10-15T10:04:49;15.05;;;8.65;;
70545;SDS011;58098;51.680;5.134;2022-10-15T10:07:26;16.53;;;9.40;;
70545;SDS011;58098;51.680;5.134;2022-10-15T10:09:54;15.10;;;8.88;;
70545;SDS011;58098;51.680;5.134;2022-10-15T10:12:31;13.50;;;8.93;;
70545;SDS011;58098;51.680;5.134;2022-10-15T10:17:22;13.47;;;8.93;;
70545;SDS011;58098;51.680;5.134;2022-10-15T10:22:40;13.63;;;8.57;;
70545;SDS011;58098;51.680;5.134;2022-10-15T10:25:21;12.13;;;8.38;;
70545;SDS011;58098;51.680;5.134;2022-10-15T10:27:47;13.68;;;8.55;;
70545;SDS011;58098;51.680;5.134;2022-10-15T10:30:12;13.17;;;7.60;;
70545;SDS011;58098;51.680;5.134;2022-10-15T10:32:37;14.67;;;8.33;;
70545;SDS011;58098;51.680;5.134;2022-10-15T10:35:03;12.45;;;7.88;;
70545;SDS011;58098;51.680;5.134;2022-10-15T10:37:39;11.40;;;7.70;;
70545;SDS011;58098;51.680;5.134;2022-10-15T10:40:05;11.75;;;7.20;;
70545;SDS011;58098;51.680;5.134;2022-10-15T10:42:43;9.20;;;7.40;;
70545;SDS011;58098;51.680;5.134;2022-10-15T10:45:16;9.50;;;7.83;;
70545;SDS011;58098;51.680;5.134;2022-10-15T10:47:42;10.30;;;7.15;;
70545;SDS011;58098;51.680;5.134;2022-10-15T10:50:24;10.73;;;6.97;;
70545;SDS011;58098;51.680;5.134;2022-10-15T10:52:50;10.55;;;7.78;;
70545;SDS011;58098;51.680;5.134;2022-10-15T10:55:16;11.00;;;7.25;;
70545;SDS011;58098;51.680;5.134;2022-10-15T10:57:49;10.73;;;6.67;;
70545;SDS011;58098;51.680;5.134;2022-10-15T11:00:23;9.40;;;6.93;;
70545;SDS011;58098;51.680;5.134;2022-10-15T11:02:50;10.57;;;6.93;;
70545;SDS011;58098;51.680;5.134;2022-10-15T11:05:16;8.52;;;6.47;;
70545;SDS011;58098;51.680;5.134;2022-10-15T11:07:49;11.63;;;6.68;;
70545;SDS011;58098;51.680;5.134;2022-10-15T11:10:18;12.30;;;6.87;;
70545;SDS011;58098;51.680;5.134;2022-10-15T11:15:18;6.80;;;6.10;;
70545;SDS011;58098;51.680;5.134;2022-10-15T11:23:31;8.50;;;6.20;;
70545;SDS011;58098;51.680;5.134;2022-10-15T11:28:49;6.07;;;5.47;;
70545;SDS011;58098;51.680;5.134;2022-10-15T11:31:28;8.85;;;5.93;;
70545;SDS011;58098;51.680;5.134;2022-10-15T11:36:43;8.03;;;6.00;;
70545;SDS011;58098;51.680;5.134;2022-10-15T11:42:07;8.50;;;6.20;;
70545;SDS011;58098;51.680;5.134;2022-10-15T11:47:08;8.95;;;6.30;;
70545;SDS011;58098;51.680;5.134;2022-10-15T11:57:27;7.72;;;6.07;;
70545;SDS011;58098;51.680;5.134;2022-10-15T11:59:57;8.00;;;5.70;;
70545;SDS011;58098;51.680;5.134;2022-10-15T12:02:36;6.03;;;5.43;;
70545;SDS011;58098;51.680;5.134;2022-10-15T12:05:13;7.55;;;5.10;;
70545;SDS011;58098;51.680;5.134;2022-10-15T12:07:42;7.85;;;5.85;;
70545;SDS011;58098;51.680;5.134;2022-10-15T12:12:36;10.75;;;4.85;;
70545;SDS011;58098;51.680;5.134;2022-10-15T12:15:11;6.15;;;5.22;;
70545;SDS011;58098;51.680;5.134;2022-10-15T12:17:41;6.30;;;5.57;;
70545;SDS011;58098;51.680;5.134;2022-10-15T12:20:14;7.28;;;5.78;;
70545;SDS011;58098;51.680;5.134;2022-10-15T12:28:16;9.18;;;7.38;;
70545;SDS011;58098;51.680;5.134;2022-10-15T12:33:36;8.00;;;6.68;;
70545;SDS011;58098;51.680;5.134;2022-10-15T12:38:42;8.13;;;6.72;;
70545;SDS011;58098;51.680;5.134;2022-10-15T12:41:15;7.43;;;6.72;;
70545;SDS011;58098;51.680;5.134;2022-10-15T12:43:44;9.00;;;7.03;;
70545;SDS011;58098;51.680;5.134;2022-10-15T12:46:11;7.33;;;6.47;;
70545;SDS011;58098;51.680;5.134;2022-10-15T12:48:38;8.90;;;7.03;;
70545;SDS011;58098;51.680;5.134;2022-10-15T12:53:50;7.03;;;6.10;;
70545;SDS011;58098;51.680;5.134;2022-10-15T13:11:23;6.28;;;5.30;;
70545;SDS011;58098;51.680;5.134;2022-10-15T13:13:50;4.35;;;3.95;;
70545;SDS011;58098;51.680;5.134;2022-10-15T13:16:16;5.28;;;4.70;;
70545;SDS011;58098;51.680;5.134;2022-10-15T13:18:41;6.73;;;5.07;;
70545;SDS011;58098;51.680;5.134;2022-10-15T13:21:11;3.40;;;3.10;;
70545;SDS011;58098;51.680;5.134;2022-10-15T13:23:36;4.33;;;2.47;;
70545;SDS011;58098;51.680;5.134;2022-10-15T13:26:09;3.97;;;2.17;;
70545;SDS011;58098;51.680;5.134;2022-10-15T13:28:36;2.72;;;1.85;;
70545;SDS011;58098;51.680;5.134;2022-10-15T13:31:04;3.20;;;1.95;;
70545;SDS011;58098;51.680;5.134;2022-10-15T13:33:30;2.40;;;1.90;;
70545;SDS011;58098;51.680;5.134;2022-10-15T13:36:03;1.90;;;1.70;;
70545;SDS011;58098;51.680;5.134;2022-10-15T13:38:28;1.40;;;1.30;;
70545;SDS011;58098;51.680;5.134;2022-10-15T13:40:53;2.17;;;1.50;;
70545;SDS011;58098;51.680;5.134;2022-10-15T13:43:20;1.80;;;1.70;;
70545;SDS011;58098;51.680;5.134;2022-10-15T13:46:09;2.47;;;1.65;;
70545;SDS011;58098;51.680;5.134;2022-10-15T13:48:31;4.57;;;1.67;;
70545;SDS011;58098;51.680;5.134;2022-10-15T13:51:00;2.17;;;1.50;;
70545;SDS011;58098;51.680;5.134;2022-10-15T13:55:55;2.72;;;1.42;;
70545;SDS011;58098;51.680;5.134;2022-10-15T13:58:22;5.07;;;1.60;;
70545;SDS011;58098;51.680;5.134;2022-10-15T14:00:49;2.03;;;1.17;;
70545;SDS011;58098;51.680;5.134;2022-10-15T14:03:19;2.80;;;1.48;;
70545;SDS011;58098;51.680;5.134;2022-10-15T14:05:46;1.88;;;1.23;;
70545;SDS011;58098;51.680;5.134;2022-10-15T14:08:19;1.63;;;1.53;;
70545;SDS011;58098;51.680;5.134;2022-10-15T14:10:44;1.38;;;1.20;;
70545;SDS011;58098;51.680;5.134;2022-10-15T14:13:10;1.73;;;1.20;;
70545;SDS011;58098;51.680;5.134;2022-10-15T14:18:03;2.15;;;1.30;;
70545;SDS011;58098;51.680;5.134;2022-10-15T14:20:28;4.07;;;1.27;;
70545;SDS011;58098;51.680;5.134;2022-10-15T14:22:54;2.80;;;1.40;;
70545;SDS011;58098;51.680;5.134;2022-10-15T14:25:21;2.70;;;1.30;;
70545;SDS011;58098;51.680;5.134;2022-10-15T14:27:47;2.00;;;1.20;;
70545;SDS011;58098;51.680;5.134;2022-10-15T14:30:13;2.88;;;0.93;;
70545;SDS011;58098;51.680;5.134;2022-10-15T14:32:46;3.97;;;1.37;;
70545;SDS011;58098;51.680;5.134;2022-10-15T14:35:24;3.42;;;1.10;;
70545;SDS011;58098;51.680;5.134;2022-10-15T14:40:30;1.45;;;1.00;;
70545;SDS011;58098;51.680;5.134;2022-10-15T14:43:03;1.50;;;1.10;;
70545;SDS011;58098;51.680;5.134;2022-10-15T14:45:29;1.88;;;1.15;;
70545;SDS011;58098;51.680;5.134;2022-10-15T14:47:56;1.80;;;1.02;;
70545;SDS011;58098;51.680;5.134;2022-10-15T14:50:23;1.67;;;0.98;;
70545;SDS011;58098;51.680;5.134;2022-10-15T14:52:50;2.57;;;0.90;;
70545;SDS011;58098;51.680;5.134;2022-10-15T14:57:44;4.43;;;1.20;;
70545;SDS011;58098;51.680;5.134;2022-10-15T15:00:13;2.77;;;1.10;;
70545;SDS011;58098;51.680;5.134;2022-10-15T15:02:39;4.35;;;1.08;;
70545;SDS011;58098;51.680;5.134;2022-10-15T15:07:35;2.25;;;1.00;;
70545;SDS011;58098;51.680;5.134;2022-10-15T15:10:01;3.70;;;1.10;;
70545;SDS011;58098;51.680;5.134;2022-10-15T15:12:26;3.53;;;1.40;;
70545;SDS011;58098;51.680;5.134;2022-10-15T15:14:51;5.13;;;1.33;;
70545;SDS011;58098;51.680;5.134;2022-10-15T15:17:18;2.70;;;1.27;;
70545;SDS011;58098;51.680;5.134;2022-10-15T15:19:44;3.15;;;1.20;;
70545;SDS011;58098;51.680;5.134;2022-10-15T15:22:10;1.30;;;1.20;;
70545;SDS011;58098;51.680;5.134;2022-10-15T15:24:37;2.28;;;1.30;;
70545;SDS011;58098;51.680;5.134;2022-10-15T15:27:02;2.63;;;1.00;;
70545;SDS011;58098;51.680;5.134;2022-10-15T15:29:27;5.50;;;1.20;;
70545;SDS011;58098;51.680;5.134;2022-10-15T15:31:53;7.37;;;1.17;;
70545;SDS011;58098;51.680;5.134;2022-10-15T15:34:18;3.03;;;1.40;;
70545;SDS011;58098;51.680;5.134;2022-10-15T15:36:43;4.07;;;1.23;;
70545;SDS011;58098;51.680;5.134;2022-10-15T15:39:08;3.55;;;1.70;;
70545;SDS011;58098;51.680;5.134;2022-10-15T15:41:34;2.00;;;1.20;;
70545;SDS011;58098;51.680;5.134;2022-10-15T15:43:59;4.07;;;1.40;;
70545;SDS011;58098;51.680;5.134;2022-10-15T15:46:24;4.83;;;1.60;;
70545;SDS011;58098;51.680;5.134;2022-10-15T15:48:49;6.75;;;1.70;;
70545;SDS011;58098;51.680;5.134;2022-10-15T15:53:42;6.10;;;1.47;;
70545;SDS011;58098;51.680;5.134;2022-10-15T15:56:08;3.87;;;1.50;;
70545;SDS011;58098;51.680;5.134;2022-10-15T15:58:33;7.50;;;1.60;;
70545;SDS011;58098;51.680;5.134;2022-10-15T16:00:58;8.43;;;2.17;;
70545;SDS011;58098;51.680;5.134;2022-10-15T16:03:23;2.57;;;1.50;;
70545;SDS011;58098;51.680;5.134;2022-10-15T16:05:48;2.50;;;1.33;;
70545;SDS011;58098;51.680;5.134;2022-10-15T16:08:15;8.05;;;1.58;;
70545;SDS011;58098;51.680;5.134;2022-10-15T16:10:40;5.00;;;1.70;;
70545;SDS011;58098;51.680;5.134;2022-10-15T16:13:05;8.13;;;3.27;;
70545;SDS011;58098;51.680;5.134;2022-10-15T16:15:30;9.80;;;4.03;;
70545;SDS011;58098;51.680;5.134;2022-10-15T16:17:55;6.47;;;2.40;;
70545;SDS011;58098;51.680;5.134;2022-10-15T16:20:21;5.27;;;1.70;;
70545;SDS011;58098;51.680;5.134;2022-10-15T16:22:49;7.97;;;1.90;;
70545;SDS011;58098;51.680;5.134;2022-10-15T16:25:15;4.15;;;2.00;;
70545;SDS011;58098;51.680;5.134;2022-10-15T16:27:40;5.63;;;2.20;;
70545;SDS011;58098;51.680;5.134;2022-10-15T16:30:05;10.80;;;4.47;;
70545;SDS011;58098;51.680;5.134;2022-10-15T16:32:31;12.03;;;4.73;;
70545;SDS011;58098;51.680;5.134;2022-10-15T16:34:56;9.80;;;2.53;;
70545;SDS011;58098;51.680;5.134;2022-10-15T16:37:21;5.70;;;2.53;;
70545;SDS011;58098;51.680;5.134;2022-10-15T16:39:46;4.33;;;2.30;;
70545;SDS011;58098;51.680;5.134;2022-10-15T16:42:11;10.50;;;3.20;;
70545;SDS011;58098;51.680;5.134;2022-10-15T16:44:37;4.35;;;1.80;;